Time;durP1;ratioP1;P1;durP2;ratioP2;P2;SDS_P1;SDS_P2;PMS_P1;PMS_P2;Temp;Humidity;BMP_temperature;BMP_pressure;BME280_temperature;BME280_humidity;BME280_pressure;Samples;Min_cycle;Max_cycle;Signal;HPM_P1;HPM_P2
2023/12/20 00:01:35;;;;;;;61.70;25.30;;;;;;;12.01;100.00;101048.92;106534;1288;61061;-79
2023/12/20 00:04:02;;;;;;;57.70;26.10;;;;;;;11.99;100.00;101056.52;106608;1287;58284;-79
2023/12/20 00:06:27;;;;;;;74.20;27.10;;;;;;;11.93;100.00;101063.60;106580;1288;58301;-79
2023/12/20 00:08:53;;;;;;;63.00;26.10;;;;;;;11.94;100.00;101068.95;106528;1287;58498;-80
2023/12/20 00:11:19;;;;;;;69.30;28.30;;;;;;;12.01;100.00;101072.04;106281;1288;59116;-79
2023/12/20 00:13:44;;;;;;;67.30;28.20;;;;;;;11.95;100.00;101072.59;106561;1288;58287;-79
2023/12/20 00:16:09;;;;;;;66.40;27.50;;;;;;;12.06;100.00;101067.27;106618;1287;58740;-79
2023/12/20 00:18:35;;;;;;;63.60;25.90;;;;;;;11.97;100.00;101058.02;106625;1288;58233;-79
2023/12/20 00:21:00;;;;;;;61.30;25.10;;;;;;;11.95;100.00;101054.16;106599;1287;58581;-79
2023/12/20 00:23:26;;;;;;;65.90;26.00;;;;;;;12.00;99.93;101042.54;106375;1287;58261;-79
2023/12/20 00:25:51;;;;;;;66.60;26.60;;;;;;;11.97;99.95;101031.65;106588;1288;58571;-79
2023/12/20 00:28:17;;;;;;;72.40;28.60;;;;;;;11.95;100.00;101035.69;106645;1288;58478;-79
2023/12/20 00:30:42;;;;;;;62.60;26.60;;;;;;;11.85;99.97;101035.05;106307;1288;58802;-79
2023/12/20 00:33:10;;;;;;;67.70;28.70;;;;;;;11.90;100.00;101035.11;106603;1287;58224;-80
2023/12/20 00:35:36;;;;;;;71.30;27.30;;;;;;;12.39;97.21;101028.70;106565;1288;61069;-79
2023/12/20 00:38:02;;;;;;;58.70;25.90;;;;;;;12.42;95.64;101025.42;106591;1288;58385;-80
2023/12/20 00:40:27;;;;;;;60.00;25.50;;;;;;;12.47;95.54;101030.60;106328;1288;58505;-80
2023/12/20 00:42:53;;;;;;;67.30;26.90;;;;;;;12.50;94.37;101025.73;106435;1288;58452;-79
2023/12/20 00:45:18;;;;;;;63.50;27.20;;;;;;;12.47;94.06;101018.77;106646;1288;58330;-79
2023/12/20 00:47:44;;;;;;;60.90;26.30;;;;;;;12.52;93.62;101021.64;106575;1287;73699;-79
2023/12/20 00:50:09;;;;;;;59.80;25.80;;;;;;;12.50;93.08;101020.33;106625;1287;58268;-79
2023/12/20 00:52:35;;;;;;;57.20;26.30;;;;;;;12.55;93.04;101015.77;106577;1287;58315;-80
2023/12/20 00:55:00;;;;;;;55.20;25.40;;;;;;;12.40;93.23;101018.06;106429;1287;58266;-80
2023/12/20 00:57:26;;;;;;;60.90;26.30;;;;;;;12.40;93.10;101016.98;106636;1288;58306;-79
2023/12/20 00:59:51;;;;;;;59.60;25.60;;;;;;;12.39;92.87;101016.96;106591;1287;74182;-79
2023/12/20 01:02:17;;;;;;;57.00;25.10;;;;;;;12.38;92.24;101023.51;106599;1287;58493;-79
2023/12/20 01:04:42;;;;;;;51.90;24.00;;;;;;;12.45;92.05;101026.48;106598;1287;58248;-79
2023/12/20 01:07:08;;;;;;;58.20;25.70;;;;;;;12.41;91.89;101028.98;106596;1287;58213;-79
2023/12/20 01:09:33;;;;;;;60.60;25.60;;;;;;;12.38;92.12;101030.48;106623;1287;58260;-79
2023/12/20 01:11:59;;;;;;;60.50;25.70;;;;;;;12.29;92.84;101030.37;106554;1287;58451;-79
2023/12/20 01:14:24;;;;;;;59.20;25.50;;;;;;;12.27;92.69;101027.16;106567;1288;58318;-80
2023/12/20 01:16:50;;;;;;;64.50;27.70;;;;;;;12.08;94.35;101027.58;106588;1287;58223;-79
2023/12/20 01:19:16;;;;;;;58.90;25.90;;;;;;;12.19;93.72;101028.25;106290;1287;58434;-79
2023/12/20 01:21:41;;;;;;;61.40;26.90;;;;;;;12.07;94.39;101024.90;106531;1288;58347;-79
2023/12/20 01:24:07;;;;;;;59.90;25.10;;;;;;;11.71;98.26;101026.01;106583;1288;58299;-79
2023/12/20 01:26:32;;;;;;;63.60;27.30;;;;;;;11.73;99.17;101026.73;106465;1287;58662;-79
2023/12/20 01:28:58;;;;;;;66.40;27.10;;;;;;;11.78;99.13;101026.61;106569;1288;58327;-79
2023/12/20 01:31:23;;;;;;;58.70;25.00;;;;;;;11.87;98.62;101021.04;106589;1287;58498;-79
2023/12/20 01:33:49;;;;;;;67.00;27.80;;;;;;;11.95;97.54;101020.34;106619;1287;58266;-80
2023/12/20 01:36:14;;;;;;;66.30;26.90;;;;;;;12.02;96.89;101019.64;106473;1288;60137;-80
2023/12/20 01:38:40;;;;;;;65.90;26.60;;;;;;;11.97;97.36;101015.34;106637;1287;58349;-79
2023/12/20 01:41:05;;;;;;;57.50;23.80;;;;;;;12.03;96.41;101011.77;106588;1288;58334;-79
2023/12/20 01:43:30;;;;;;;53.70;23.70;;;;;;;11.95;96.32;101008.63;106605;1287;58453;-80
2023/12/20 01:45:57;;;;;;;54.50;25.00;;;;;;;11.79;97.70;101010.64;106449;1288;59131;-79
2023/12/20 01:48:24;;;;;;;59.80;25.20;;;;;;;11.81;98.02;101007.05;106440;1288;74610;-80
2023/12/20 01:50:51;;;;;;;57.70;25.60;;;;;;;12.00;96.66;101008.39;106592;1288;73316;-79
2023/12/20 01:53:19;;;;;;;58.50;26.00;;;;;;;11.91;96.74;101000.05;106334;1287;58367;-80
2023/12/20 01:55:44;;;;;;;62.70;27.20;;;;;;;11.98;96.26;101002.01;106242;1288;60954;-79
2023/12/20 01:58:12;;;;;;;62.80;26.80;;;;;;;12.11;95.21;100999.08;106580;1288;58153;-80
2023/12/20 02:00:38;;;;;;;64.30;28.10;;;;;;;11.90;96.35;100996.61;106465;1288;73021;-79
2023/12/20 02:03:04;;;;;;;59.00;25.50;;;;;;;11.93;96.58;100995.05;106614;1288;58268;-80
2023/12/20 02:05:31;;;;;;;61.50;27.50;;;;;;;11.82;97.33;100989.38;106575;1288;58330;-80
2023/12/20 02:07:56;;;;;;;60.60;26.80;;;;;;;12.03;95.99;100987.19;106554;1287;58660;-80
2023/12/20 02:10:23;;;;;;;60.10;25.90;;;;;;;11.81;96.64;100984.73;106621;1287;58233;-79
2023/12/20 02:12:48;;;;;;;65.90;28.40;;;;;;;11.73;98.02;100986.66;106632;1288;58273;-79
2023/12/20 02:15:14;;;;;;;68.40;28.60;;;;;;;11.94;96.19;100983.39;106622;1288;58269;-79
2023/12/20 02:17:39;;;;;;;70.00;28.60;;;;;;;12.03;95.11;100984.11;106606;1288;58527;-79
2023/12/20 02:20:06;;;;;;;69.90;28.40;;;;;;;12.02;93.96;100977.61;106598;1287;61224;-79
2023/12/20 02:22:31;;;;;;;62.30;27.00;;;;;;;11.91;94.26;100973.92;106616;1288;58255;-79
2023/12/20 02:24:57;;;;;;;71.00;29.40;;;;;;;11.84;94.80;100975.47;106627;1288;58629;-79
2023/12/20 02:27:23;;;;;;;65.70;27.10;;;;;;;11.75;95.34;100980.56;106579;1287;58325;-80
2023/12/20 02:29:49;;;;;;;63.40;26.60;;;;;;;11.71;96.09;100977.35;106573;1288;58193;-80
2023/12/20 02:32:17;;;;;;;71.40;28.90;;;;;;;11.83;96.13;100978.16;106638;1287;58382;-79
2023/12/20 02:34:42;;;;;;;68.00;27.70;;;;;;;11.88;95.54;100974.92;106574;1287;58143;-79
2023/12/20 02:37:08;;;;;;;66.10;28.00;;;;;;;11.82;96.43;100972.27;106589;1287;58843;-79
2023/12/20 02:39:33;;;;;;;71.50;28.70;;;;;;;11.75;97.28;100962.54;106592;1288;58306;-79
2023/12/20 02:41:59;;;;;;;66.60;27.50;;;;;;;11.68;98.19;100959.35;106492;1287;61146;-79
2023/12/20 02:44:27;;;;;;;68.50;29.00;;;;;;;11.77;97.85;100954.83;106607;1288;58371;-79
2023/12/20 02:46:53;;;;;;;64.20;26.30;;;;;;;11.84;97.07;100947.98;106565;1288;74712;-80
2023/12/20 02:49:18;;;;;;;75.10;29.70;;;;;;;11.85;96.87;100952.27;106545;1287;58321;-79
2023/12/20 02:51:44;;;;;;;73.80;28.50;;;;;;;11.89;96.45;100951.10;106480;1288;58435;-80
2023/12/20 02:54:09;;;;;;;73.70;28.10;;;;;;;11.87;96.25;100951.19;106599;1288;58206;-79
2023/12/20 02:56:35;;;;;;;66.20;27.90;;;;;;;11.86;96.18;100954.21;106700;1287;58397;-79
2023/12/20 02:59:01;;;;;;;61.90;26.70;;;;;;;11.89;95.97;100948.39;106588;1288;58273;-80
2023/12/20 03:01:27;;;;;;;67.30;28.90;;;;;;;11.55;97.98;100936.89;106604;1287;59026;-79
2023/12/20 03:03:53;;;;;;;72.00;29.30;;;;;;;11.56;98.49;100936.31;106573;1288;58245;-79
2023/12/20 03:06:19;;;;;;;65.80;29.50;;;;;;;11.69;97.51;100938.63;106576;1287;58598;-80
2023/12/20 03:08:45;;;;;;;71.50;28.90;;;;;;;11.56;98.00;100943.48;106569;1287;58289;-80
2023/12/20 03:11:11;;;;;;;68.10;28.20;;;;;;;11.76;96.40;100944.73;106548;1287;58241;-79
2023/12/20 03:13:36;;;;;;;76.40;29.50;;;;;;;11.85;94.91;100943.55;106536;1288;58243;-80
2023/12/20 03:16:11;;;;;;;62.00;29.00;;;;;;;11.58;96.88;100942.70;106629;1287;58368;-79
2023/12/20 03:18:37;;;;;;;64.80;30.30;;;;;;;11.52;97.41;100937.73;106518;1288;72950;-79
2023/12/20 03:21:03;;;;;;;74.30;28.80;;;;;;;11.50;98.09;100938.63;106574;1287;58379;-80
2023/12/20 03:23:30;;;;;;;65.90;28.60;;;;;;;11.61;97.75;100930.85;106610;1288;58450;-79
2023/12/20 03:25:56;;;;;;;74.90;31.40;;;;;;;11.55;99.05;100937.10;106482;1287;58228;-80
2023/12/20 03:28:22;;;;;;;75.60;33.10;;;;;;;11.60;99.06;100938.61;106597;1288;58655;-79
2023/12/20 03:30:48;;;;;;;75.90;31.50;;;;;;;11.47;99.48;100944.48;106637;1287;58530;-79
2023/12/20 03:33:13;;;;;;;80.10;33.60;;;;;;;11.40;100.00;100944.75;106522;1288;58277;-80
2023/12/20 03:35:39;;;;;;;82.70;33.60;;;;;;;11.63;99.29;100938.41;106575;1288;58226;-80
2023/12/20 03:38:04;;;;;;;84.00;34.30;;;;;;;11.72;98.54;100936.11;106577;1288;73927;-80
2023/12/20 03:40:30;;;;;;;75.50;32.00;;;;;;;11.62;97.84;100935.55;106579;1288;58569;-80
2023/12/20 03:42:55;;;;;;;75.00;31.60;;;;;;;11.49;98.25;100937.34;106558;1288;58305;-79
2023/12/20 03:45:21;;;;;;;85.80;34.20;;;;;;;11.45;98.19;100942.91;106569;1288;58237;-80
2023/12/20 03:47:47;;;;;;;83.90;32.40;;;;;;;11.52;97.07;100949.77;106612;1287;58342;-79
2023/12/20 03:50:13;;;;;;;74.90;32.80;;;;;;;11.41;97.47;100954.01;106578;1288;73464;-80
2023/12/20 03:52:38;;;;;;;75.40;30.90;;;;;;;11.41;96.96;100955.67;106527;1288;58339;-80
2023/12/20 03:55:04;;;;;;;73.50;30.90;;;;;;;11.40;96.75;100958.47;106577;1287;58167;-80
2023/12/20 03:57:29;;;;;;;80.60;33.40;;;;;;;11.27;97.81;100957.70;106337;1287;58359;-80
2023/12/20 03:59:55;;;;;;;82.80;34.20;;;;;;;11.38;97.50;100959.69;106701;1288;58595;-79
2023/12/20 04:02:20;;;;;;;82.80;34.00;;;;;;;11.47;97.09;100960.05;106553;1288;73690;-80
2023/12/20 04:04:46;;;;;;;86.70;35.30;;;;;;;11.47;97.44;100959.98;106540;1288;58174;-80
2023/12/20 04:07:11;;;;;;;80.20;34.40;;;;;;;11.53;97.20;100961.27;106584;1288;58349;-80
2023/12/20 04:09:37;;;;;;;91.30;34.70;;;;;;;11.65;96.00;100960.14;106560;1287;58529;-79
2023/12/20 04:12:03;;;;;;;83.20;36.30;;;;;;;11.59;95.78;100957.33;106588;1288;59150;-79
2023/12/20 04:14:29;;;;;;;89.30;37.10;;;;;;;11.53;96.21;100953.23;106553;1288;60921;-80
2023/12/20 04:16:54;;;;;;;88.50;36.20;;;;;;;11.52;96.50;100948.16;106284;1288;58308;-79
2023/12/20 04:19:20;;;;;;;91.10;37.70;;;;;;;11.53;96.94;100950.21;106553;1287;58376;-79
2023/12/20 04:21:45;;;;;;;92.90;37.40;;;;;;;11.56;96.94;100947.16;106273;1289;58409;-80
2023/12/20 04:24:10;;;;;;;88.30;36.30;;;;;;;11.57;96.90;100944.85;106586;1287;58464;-80
2023/12/20 04:26:36;;;;;;;88.00;34.40;;;;;;;11.52;97.02;100942.87;106561;1288;60083;-79
2023/12/20 04:29:02;;;;;;;88.60;32.60;;;;;;;11.55;97.01;100940.45;106576;1288;58381;-79
2023/12/20 04:31:27;;;;;;;84.30;34.10;;;;;;;11.71;95.70;100930.55;106279;1289;58253;-80
2023/12/20 04:33:53;;;;;;;82.70;33.90;;;;;;;11.56;96.66;100928.16;106412;1287;58263;-79
2023/12/20 04:36:18;;;;;;;88.70;34.00;;;;;;;11.61;96.37;100928.15;106459;1287;58482;-80
2023/12/20 04:38:43;;;;;;;73.50;30.90;;;;;;;11.60;96.18;100927.36;106544;1288;74825;-79
2023/12/20 04:41:09;;;;;;;82.50;31.90;;;;;;;11.56;96.40;100928.91;106404;1288;58348;-79
2023/12/20 04:43:35;;;;;;;77.00;31.70;;;;;;;11.59;96.15;100928.14;106592;1287;58240;-79
2023/12/20 04:46:00;;;;;;;80.10;32.70;;;;;;;11.59;95.54;100925.70;106237;1288;58383;-80
2023/12/20 04:48:25;;;;;;;79.10;32.30;;;;;;;11.38;96.73;100921.70;106570;1288;58285;-79
2023/12/20 04:50:51;;;;;;;79.90;32.70;;;;;;;11.23;98.48;100921.02;106547;1288;58150;-80
2023/12/20 04:53:16;;;;;;;77.90;32.50;;;;;;;11.28;98.62;100924.31;106550;1287;58245;-80
2023/12/20 04:55:42;;;;;;;74.30;32.90;;;;;;;11.32;97.55;100926.39;106539;1288;58173;-79
2023/12/20 04:58:07;;;;;;;76.80;31.20;;;;;;;11.37;97.43;100934.16;106537;1288;58264;-80
2023/12/20 05:00:33;;;;;;;75.10;30.20;;;;;;;11.36;97.33;100935.61;106602;1288;58222;-80
2023/12/20 05:02:58;;;;;;;66.50;28.90;;;;;;;11.40;96.91;100939.41;106603;1288;58226;-80
2023/12/20 05:05:24;;;;;;;66.30;28.30;;;;;;;11.34;96.94;100944.81;106539;1287;58347;-80
2023/12/20 05:07:49;;;;;;;64.10;27.70;;;;;;;11.36;97.54;100942.55;106569;1287;58287;-79
2023/12/20 05:10:15;;;;;;;63.60;28.10;;;;;;;11.39;96.53;100945.82;106576;1288;58411;-80
2023/12/20 05:12:40;;;;;;;64.60;28.20;;;;;;;11.33;97.32;100946.69;106584;1287;58289;-80
2023/12/20 05:15:06;;;;;;;67.80;29.20;;;;;;;11.33;97.18;100948.32;106538;1288;58314;-80
2023/12/20 05:17:32;;;;;;;61.70;27.70;;;;;;;11.14;98.93;100949.70;106557;1288;58240;-80
2023/12/20 05:19:57;;;;;;;68.50;27.90;;;;;;;11.09;99.60;100947.71;106259;1291;58841;-79
2023/12/20 05:22:23;;;;;;;68.00;28.60;;;;;;;10.86;100.00;100945.73;106585;1287;58635;-80
2023/12/20 05:24:49;;;;;;;60.20;27.10;;;;;;;10.86;100.00;100947.18;106079;1292;316255;-80
2023/12/20 05:27:14;;;;;;;67.60;28.10;;;;;;;10.96;99.96;100942.23;106541;1288;60353;-79
2023/12/20 05:29:40;;;;;;;66.10;28.10;;;;;;;10.96;100.00;100946.92;106598;1288;58362;-79
2023/12/20 05:32:05;;;;;;;69.10;28.30;;;;;;;10.90;100.00;100946.95;106586;1287;58341;-79
2023/12/20 05:34:31;;;;;;;70.20;29.00;;;;;;;10.93;100.00;100947.75;106549;1287;58293;-80
2023/12/20 05:36:58;;;;;;;63.20;27.70;;;;;;;11.00;100.00;100950.04;106567;1288;58900;-80
2023/12/20 05:39:23;;;;;;;64.10;28.30;;;;;;;10.92;100.00;100954.00;106543;1288;73729;-80
2023/12/20 05:41:49;;;;;;;70.80;27.60;;;;;;;10.91;100.00;100954.08;106598;1288;58263;-79
2023/12/20 05:44:15;;;;;;;61.80;27.40;;;;;;;10.90;100.00;100953.98;106555;1287;58251;-80
2023/12/20 05:46:40;;;;;;;65.40;28.30;;;;;;;10.87;100.00;100957.51;106592;1287;58313;-79
2023/12/20 05:49:06;;;;;;;66.80;29.10;;;;;;;10.93;100.00;100961.02;106603;1288;58212;-80
2023/12/20 05:51:32;;;;;;;58.90;26.80;;;;;;;11.15;100.00;100958.17;106539;1287;73959;-80
2023/12/20 05:53:58;;;;;;;55.60;24.50;;;;;;;11.18;100.00;100960.15;106555;1288;58448;-80
2023/12/20 05:56:24;;;;;;;59.30;26.90;;;;;;;11.22;100.00;100961.75;106564;1288;58362;-80
2023/12/20 05:58:49;;;;;;;58.90;27.30;;;;;;;11.18;100.00;100964.88;106558;1288;58701;-80
2023/12/20 06:01:16;;;;;;;61.80;27.40;;;;;;;11.19;100.00;100966.63;106606;1288;58327;-80
2023/12/20 06:03:43;;;;;;;57.50;25.50;;;;;;;11.25;100.00;100977.63;106212;1288;58573;-79
2023/12/20 06:06:09;;;;;;;61.30;26.20;;;;;;;11.26;100.00;100975.33;106268;1288;58311;-80
2023/12/20 06:08:34;;;;;;;64.10;27.60;;;;;;;11.21;100.00;100968.00;106481;1288;58267;-80
2023/12/20 06:11:00;;;;;;;59.80;26.90;;;;;;;11.35;100.00;100967.11;106549;1287;58236;-80
2023/12/20 06:13:26;;;;;;;64.40;27.90;;;;;;;11.43;100.00;100963.13;106568;1287;74796;-80
2023/12/20 06:15:54;;;;;;;63.20;27.70;;;;;;;11.52;100.00;100963.59;106546;1288;58377;-80
2023/12/20 06:18:19;;;;;;;62.60;26.20;;;;;;;11.55;100.00;100962.64;106442;1291;59819;-80
2023/12/20 06:20:45;;;;;;;52.70;24.70;;;;;;;11.61;100.00;100965.19;106725;1285;58302;-80
2023/12/20 06:23:10;;;;;;;58.40;27.90;;;;;;;11.71;100.00;100962.98;106795;1285;58586;-80
2023/12/20 06:25:36;;;;;;;59.10;26.70;;;;;;;11.78;100.00;100957.98;106742;1285;58524;-80
2023/12/20 06:28:01;;;;;;;57.40;26.20;;;;;;;11.67;100.00;100960.98;106732;1285;58197;-80
2023/12/20 06:30:27;;;;;;;64.00;26.80;;;;;;;11.53;100.00;100958.47;106733;1285;59389;-80
2023/12/20 06:32:54;;;;;;;52.70;24.00;;;;;;;11.63;100.00;100957.91;106749;1285;58329;-80
2023/12/20 06:35:19;;;;;;;59.70;24.90;;;;;;;11.60;100.00;100959.34;106757;1286;58685;-80
2023/12/20 06:37:45;;;;;;;54.60;25.80;;;;;;;11.58;100.00;100954.90;106722;1285;58299;-80
2023/12/20 06:40:11;;;;;;;51.40;24.60;;;;;;;11.73;100.00;100956.48;106608;1285;58277;-81
2023/12/20 06:42:37;;;;;;;54.60;24.60;;;;;;;11.72;100.00;100956.35;106753;1285;58305;-80
2023/12/20 06:45:03;;;;;;;52.20;23.00;;;;;;;11.79;100.00;100952.96;106639;1285;58246;-80
2023/12/20 06:47:32;;;;;;;49.40;22.50;;;;;;;11.91;100.00;100957.66;106790;1285;58469;-80
2023/12/20 06:49:57;;;;;;;47.00;22.30;;;;;;;11.99;100.00;100958.41;106323;1286;60274;-81
2023/12/20 06:52:26;;;;;;;51.30;21.60;;;;;;;12.34;100.00;100958.52;106754;1285;58100;-80
2023/12/20 06:54:55;;;;;;;51.20;21.40;;;;;;;12.35;100.00;100957.07;106743;1285;73477;-80
2023/12/20 06:57:20;;;;;;;48.80;21.70;;;;;;;12.48;100.00;100950.16;106478;1285;74204;-80
2023/12/20 06:59:46;;;;;;;44.60;20.50;;;;;;;12.44;99.95;100952.35;106609;1285;58325;-80
2023/12/20 07:02:11;;;;;;;42.50;18.80;;;;;;;12.58;100.00;100951.98;106320;1294;58599;-80
2023/12/20 07:04:40;;;;;;;41.40;19.10;;;;;;;12.58;100.00;100948.14;106759;1285;58289;-80
2023/12/20 07:07:07;;;;;;;44.80;19.40;;;;;;;12.76;99.26;100951.40;106770;1285;58302;-80
2023/12/20 07:09:33;;;;;;;42.90;19.20;;;;;;;12.75;99.68;100950.26;106722;1285;59155;-80
2023/12/20 07:11:59;;;;;;;44.80;19.80;;;;;;;12.73;99.92;100949.60;106747;1285;58248;-80
2023/12/20 07:14:24;;;;;;;41.80;19.00;;;;;;;12.67;100.00;100945.57;106731;1285;58248;-80
2023/12/20 07:16:50;;;;;;;41.30;18.80;;;;;;;12.75;100.00;100943.98;106489;1285;58480;-80
2023/12/20 07:19:15;;;;;;;40.10;19.40;;;;;;;12.89;100.00;100940.08;106738;1285;58596;-80
2023/12/20 07:21:41;;;;;;;38.70;18.30;;;;;;;12.89;100.00;100940.34;106773;1285;58319;-80
2023/12/20 07:24:10;;;;;;;37.50;17.90;;;;;;;13.03;100.00;100935.62;106458;1285;58499;-80
2023/12/20 07:26:37;;;;;;;45.70;18.50;;;;;;;12.94;100.00;100929.33;106342;1286;59355;-80
2023/12/20 07:29:04;;;;;;;45.50;20.20;;;;;;;12.89;100.00;100927.30;106622;1285;73982;-80
2023/12/20 07:31:29;;;;;;;40.10;17.20;;;;;;;12.91;100.00;100925.85;106779;1285;58422;-81
2023/12/20 07:33:55;;;;;;;39.90;17.90;;;;;;;12.93;100.00;100925.36;106719;1285;58415;-82
2023/12/20 07:36:21;;;;;;;42.60;17.00;;;;;;;12.88;100.00;100925.89;106744;1285;58650;-82
2023/12/20 07:38:47;;;;;;;33.90;16.70;;;;;;;12.97;100.00;100924.52;106430;1285;58292;-82
2023/12/20 07:41:12;;;;;;;33.20;16.60;;;;;;;13.17;100.00;100921.36;106468;1285;58419;-82
2023/12/20 07:43:38;;;;;;;36.50;16.10;;;;;;;13.32;99.90;100919.33;106740;1290;58274;-82
2023/12/20 07:46:05;;;;;;;36.00;16.50;;;;;;;13.29;99.26;100915.43;106395;1285;63164;-82
2023/12/20 07:48:30;;;;;;;36.00;17.00;;;;;;;13.49;98.91;100915.93;106697;1285;60529;-82
2023/12/20 07:50:56;;;;;;;35.10;16.70;;;;;;;13.58;98.74;100915.11;106752;1285;58507;-82
2023/12/20 07:53:21;;;;;;;30.50;14.30;;;;;;;13.90;97.73;100911.51;106754;1285;58255;-82
2023/12/20 07:55:47;;;;;;;36.10;16.10;;;;;;;14.17;93.58;100914.46;106715;1285;58248;-82
2023/12/20 07:58:12;;;;;;;30.20;14.70;;;;;;;14.33;93.60;100910.94;106472;1285;58385;-82
2023/12/20 08:00:39;;;;;;;32.70;14.70;;;;;;;14.67;92.66;100916.08;106603;1288;75450;-81
2023/12/20 08:03:04;;;;;;;32.90;15.10;;;;;;;14.80;90.11;100926.49;106582;1286;58315;-81
2023/12/20 08:05:30;;;;;;;37.40;16.20;;;;;;;14.76;89.38;100929.86;106744;1285;58657;-82
2023/12/20 08:08:18;;;;;;;35.90;16.20;;;;;;;14.67;89.08;100933.02;106730;1285;58197;-81
2023/12/20 08:10:44;;;;;;;33.30;15.10;;;;;;;14.70;89.03;100933.31;106082;1293;60888;-81
2023/12/20 08:13:10;;;;;;;30.00;15.50;;;;;;;14.49;89.73;100933.39;105972;1293;58407;-82
2023/12/20 08:15:37;;;;;;;35.10;16.80;;;;;;;14.41;90.40;100939.05;106085;1293;58381;-82
2023/12/20 08:18:06;;;;;;;33.30;15.20;;;;;;;14.46;90.42;100936.16;105753;1293;58696;-81
2023/12/20 08:20:31;;;;;;;34.50;16.00;;;;;;;14.28;89.99;100937.05;106072;1294;60655;-82
2023/12/20 08:22:57;;;;;;;37.90;17.40;;;;;;;14.19;90.35;100934.94;106075;1292;58358;-81
2023/12/20 08:25:28;;;;;;;35.90;16.80;;;;;;;14.22;89.69;100932.50;105819;1293;58407;-81
2023/12/20 08:27:53;;;;;;;33.80;16.90;;;;;;;14.12;88.82;100935.89;105968;1293;73339;-81
2023/12/20 08:30:22;;;;;;;32.80;15.90;;;;;;;14.13;88.62;100939.73;106061;1293;58357;-81
2023/12/20 08:32:51;;;;;;;36.30;16.40;;;;;;;14.05;89.42;100941.87;106059;1293;61202;-80
2023/12/20 08:35:19;;;;;;;34.10;16.30;;;;;;;14.13;88.77;100933.83;106063;1294;60185;-80
2023/12/20 08:37:45;;;;;;;35.50;16.50;;;;;;;13.98;89.94;100925.13;106024;1292;74227;-81
2023/12/20 08:40:10;;;;;;;40.40;18.10;;;;;;;14.23;89.20;100915.15;106031;1292;58468;-81
2023/12/20 08:42:36;;;;;;;36.30;17.30;;;;;;;14.19;88.77;100906.91;106534;1285;69843;-81
2023/12/20 08:45:04;;;;;;;42.30;19.60;;;;;;;14.08;88.87;100893.46;106700;1285;58220;-81
2023/12/20 08:47:30;;;;;;;45.30;19.00;;;;;;;13.96;89.96;100888.62;106738;1285;58255;-82
2023/12/20 08:49:58;;;;;;;39.90;18.20;;;;;;;13.96;90.99;100894.79;106723;1285;58299;-81
2023/12/20 08:52:29;;;;;;;33.20;16.10;;;;;;;13.96;90.22;100889.92;106292;1286;58309;-82
2023/12/20 08:54:55;;;;;;;33.70;15.30;;;;;;;13.92;90.01;100887.80;106717;1285;73504;-81
2023/12/20 08:57:21;;;;;;;31.80;16.10;;;;;;;13.58;91.60;100879.42;106701;1285;58583;-81
2023/12/20 08:59:50;;;;;;;37.80;15.60;;;;;;;13.72;90.80;100877.25;106753;1285;58526;-81
2023/12/20 09:02:18;;;;;;;32.60;15.20;;;;;;;13.76;91.09;100870.88;106321;1286;74699;-81
2023/12/20 09:04:46;;;;;;;33.40;15.40;;;;;;;13.74;91.37;100871.60;106756;1285;74288;-81
2023/12/20 09:07:30;;;;;;;32.60;14.60;;;;;;;13.88;90.86;100868.14;106608;1285;72520;-82
2023/12/20 09:09:56;;;;;;;27.90;13.40;;;;;;;13.86;90.06;100857.16;106684;1285;60740;-82
2023/12/20 09:12:22;;;;;;;28.10;12.90;;;;;;;13.62;90.91;100848.16;106689;1286;58326;-81
2023/12/20 09:14:49;;;;;;;30.30;14.30;;;;;;;13.87;91.73;100850.60;106702;1285;58283;-81
2023/12/20 09:17:16;;;;;;;28.70;13.30;;;;;;;13.88;90.43;100850.16;106738;1285;58258;-81
2023/12/20 09:19:43;;;;;;;24.60;13.20;;;;;;;13.85;91.53;100839.98;106304;1285;58312;-82
2023/12/20 09:22:09;;;;;;;31.60;14.40;;;;;;;13.86;92.98;100839.39;106722;1285;62222;-81
2023/12/20 09:24:35;;;;;;;32.60;15.30;;;;;;;13.98;92.87;100838.27;106740;1287;58199;-81
2023/12/20 09:27:01;;;;;;;31.90;14.90;;;;;;;14.08;93.48;100835.52;106729;1286;58464;-81
2023/12/20 09:29:26;;;;;;;29.50;14.50;;;;;;;13.94;91.31;100835.25;106771;1286;58216;-81
2023/12/20 09:31:52;;;;;;;31.20;14.30;;;;;;;13.86;90.79;100841.33;106512;1285;58524;-82
2023/12/20 09:34:18;;;;;;;32.10;14.20;;;;;;;14.05;91.34;100844.96;106445;1293;58494;-82
2023/12/20 09:36:47;;;;;;;29.90;15.00;;;;;;;13.95;90.58;100834.15;106791;1286;58308;-82
2023/12/20 09:39:20;;;;;;;31.70;14.50;;;;;;;13.88;90.20;100834.34;106691;1286;74372;-81
2023/12/20 09:41:49;;;;;;;;;;;;;;;13.95;90.54;100826.63;106631;1286;72691;-82
2023/12/20 09:44:18;;;;;;;35.30;17.60;;;;;;;13.95;90.59;100820.17;106711;1285;62320;-81
2023/12/20 09:46:49;;;;;;;37.80;16.50;;;;;;;14.16;90.29;100821.28;106741;1286;60267;-81
2023/12/20 09:49:17;;;;;;;29.40;15.20;;;;;;;14.29;90.16;100810.70;106783;1285;74670;-81
2023/12/20 09:51:43;;;;;;;32.30;16.20;;;;;;;14.34;89.25;100810.14;106696;1286;74299;-82
2023/12/20 09:54:09;;;;;;;26.40;13.80;;;;;;;14.20;89.44;100811.13;106682;1286;58423;-82
2023/12/20 09:56:35;;;;;;;35.60;15.90;;;;;;;14.44;88.19;100807.59;106732;1286;58630;-81
2023/12/20 09:59:01;;;;;;;32.10;15.60;;;;;;;14.27;87.22;100806.86;106706;1286;58297;-81
2023/12/20 10:01:28;;;;;;;30.30;15.00;;;;;;;14.31;88.10;100805.05;106389;1288;58729;-81
2023/12/20 10:03:55;;;;;;;34.10;16.30;;;;;;;14.37;87.71;100794.18;106476;1290;58572;-82
2023/12/20 10:06:21;;;;;;;26.10;14.00;;;;;;;14.49;85.96;100794.82;106489;1289;58560;-82
2023/12/20 10:08:47;;;;;;;27.90;13.20;;;;;;;14.57;85.24;100784.48;106283;1289;58595;-82
2023/12/20 10:11:13;;;;;;;27.40;13.60;;;;;;;14.63;84.75;100772.89;106523;1289;58738;-82
2023/12/20 10:13:41;;;;;;;26.40;13.30;;;;;;;14.65;85.35;100768.48;106357;1289;58654;-82
2023/12/20 10:16:09;;;;;;;31.80;14.20;;;;;;;14.63;85.17;100770.61;106401;1288;58283;-82
2023/12/20 10:18:35;;;;;;;23.80;12.40;;;;;;;14.62;85.04;100763.40;106301;1289;71908;-82
2023/12/20 10:21:03;;;;;;;23.00;12.50;;;;;;;14.69;84.27;100760.42;105920;1290;58368;-82
2023/12/20 10:23:29;;;;;;;28.10;13.30;;;;;;;14.74;84.81;100759.89;105898;1294;60344;-82
2023/12/20 10:25:59;;;;;;;24.50;12.50;;;;;;;14.75;84.08;100759.98;105779;1296;58543;-82
2023/12/20 10:28:35;;;;;;;26.30;12.80;;;;;;;14.69;84.20;100763.34;105945;1294;74687;-82
2023/12/20 10:31:10;;;;;;;27.30;13.30;;;;;;;14.76;84.61;100769.52;106020;1294;73365;-81
2023/12/20 10:33:52;;;;;;;23.30;12.30;;;;;;;14.73;84.37;100770.74;106052;1291;60730;-81
2023/12/20 10:36:20;;;;;;;27.00;12.90;;;;;;;14.73;82.95;100771.35;106097;1293;59711;-81
2023/12/20 10:38:53;;;;;;;25.50;13.00;;;;;;;14.63;82.78;100779.77;106218;1291;74460;-82
2023/12/20 10:41:43;;;;;;;26.50;12.10;;;;;;;14.49;83.81;100777.45;106251;1291;74227;-81
2023/12/20 10:44:23;;;;;;;22.30;12.10;;;;;;;14.30;83.75;100780.12;106219;1291;71277;-81
2023/12/20 10:46:57;;;;;;;28.80;13.70;;;;;;;14.19;84.27;100778.98;106095;1294;61640;-81
2023/12/20 10:49:35;;;;;;;27.60;13.00;;;;;;;14.28;85.17;100778.50;106197;1291;60812;-80
2023/12/20 10:52:09;;;;;;;25.60;13.20;;;;;;;14.19;85.25;100777.35;106147;1289;74919;-81
2023/12/20 10:54:38;;;;;;;41.70;20.80;;;;;;;14.05;86.16;100781.05;106264;1289;72744;-82
2023/12/20 10:57:08;;;;;;;28.90;15.60;;;;;;;13.96;87.22;100780.34;106234;1289;72815;-82